ウィーン の空港の天気 - METARとTAF

ウィーン国際空港 ( LOWW / VIE ) - オーストリア ウィーン
飛行場実況気象(Metar)
観測時間08/03 22:50 CEST (08/03 20:50 UTC)
風向・風速北 4m/s
視程10km以上
天気現象弱いしゅう雨
少しの雲 雲底高度 460m
気温19℃
湿度88%
気圧1006hPa
METARLOWW 032050Z 35007KT 9999 -SHRA FEW015 19/17 Q1006 TEMPO SHRA
過去の天気等 Google飛行場航空写真 Wunderground天気予報

過去48時間のMETAR

飛行場予報(TAF)
発表時間: 8/03 22:15 CEST (8/03 20:15 UTC)
予報対象時間: 3日23時 CEST ~ 5日5時 CEST
風向・風速北北西 5m/s
視程10km以上
天気現象弱い雨
全天の4割程度の雲 雲底高度 300m
全天を覆う雲 雲底高度 610m
3日23時 CEST ~ 4日6時 CEST に一時的に
視程2500m
天気現象しゅう雨
全天の8割程度の雲 雲底高度 300m
全天を覆う雲 雲底高度 610m
少しの積乱雲 雲底高度 1520m
4日7時 CEST ~ 4日10時 CEST に徐々に
天気現象運行に影響にある天気現象が終了
4日10時 CEST ~ 5日5時 CEST に一時的に
風向・風速北北西 8m/s 瞬間風速 13m/s
天気現象弱いしゅう雨
全天の8割程度の雲 雲底高度 1070m
TAF LOWW 032015Z 0321/0503 34010KT 9999 -RA SCT010 OVC020 TX22/0410Z TN15/0502Z
TEMPO 0321/0404 2500 SHRA BKN010 OVC020 FEW050CB
BECMG 0405/0408 NSW
TEMPO 0408/0503 34015G25KT -SHRA BKN035